KRAL

Riverside Municipal Airport

Riverside, California, USA
METAR KRAL 181353Z 27003KT 7SM CLR 21/19 A3006 RMK AO2 SLP164 T02060189
Observed Flight Rules
Aug-18 @ 13:53 UTC (59 minutes ago) Visual Flight Rules
Wind Visibility Clouds
270° at 3 knots 7 miles
  • Clear skies
Temperatures Readings
Current 21°C / 70°F
Dewpoint 19°C / 66°F
Humidity 88%
Altimeter 30.06" Hg
Pressure 1016.4 hPa
Elevation 252
METAR KRAL 181353Z 27003KT 7SM CLR 21/19 A3006 RMK AO2 SLP164 T02060189
Observed Flight Rules
Aug-18 @ 13:53 UTC
(59 minutes ago)
VFR
Wind Visibility
270° at 3 knots 7 miles
Clouds
  • Clear skies
Temperature Dewpoint
21°C / 70°F 19°C / 66°F
Humidity Altimeter Pressure
88% 30.06" Hg 1016.4 hPa